Time;durP1;ratioP1;P1;durP2;ratioP2;P2;SDS_P1;SDS_P2;PMS_P1;PMS_P2;Temp;Humidity;BMP_temperature;BMP_pressure;BME280_temperature;BME280_humidity;BME280_pressure;Samples;Min_cycle;Max_cycle;Signal;HPM_P1;HPM_P2
2022/12/09 00:00:39;;;;;;;28.75;18.75;;;12.60;57.20;;;;;;6131147;23;20036;-81
2022/12/09 00:03:04;;;;;;;29.58;18.75;;;12.70;56.40;;;;;;6131108;23;20450;-81
2022/12/09 00:05:30;;;;;;;31.33;19.48;;;12.60;56.30;;;;;;6131944;23;20167;-81
2022/12/09 00:07:56;;;;;;;31.23;20.13;;;12.60;56.70;;;;;;6129815;23;20453;-82
2022/12/09 00:10:22;;;;;;;30.42;19.83;;;12.80;56.70;;;;;;6156995;23;20021;-81
2022/12/09 00:12:47;;;;;;;32.65;21.20;;;13.00;56.30;;;;;;6156811;23;20419;-83
2022/12/09 00:15:13;;;;;;;29.90;20.27;;;13.20;56.00;;;;;;6156944;23;20492;-81
2022/12/09 00:17:39;;;;;;;34.45;20.90;;;13.00;56.20;;;;;;6157215;23;20002;-82
2022/12/09 00:20:05;;;;;;;32.33;20.10;;;13.00;56.70;;;;;;6156697;23;20450;-81
2022/12/09 00:22:31;;;;;;;32.42;20.80;;;13.00;56.40;;;;;;6156888;23;20371;-82
2022/12/09 00:24:56;;;;;;;30.65;20.27;;;12.90;56.50;;;;;;6156903;23;19997;-83
2022/12/09 00:27:22;;;;;;;34.92;21.17;;;13.00;56.40;;;;;;6156874;23;20018;-82
2022/12/09 00:29:47;;;;;;;32.25;19.70;;;12.90;56.40;;;;;;6157001;23;20002;-82
2022/12/09 00:32:13;;;;;;;32.78;21.33;;;12.80;57.00;;;;;;6157369;23;20001;-82
2022/12/09 00:34:39;;;;;;;32.33;20.95;;;12.90;57.00;;;;;;6157135;23;20005;-82
2022/12/09 00:37:05;;;;;;;32.05;20.67;;;13.00;56.50;;;;;;6156808;23;20011;-82
2022/12/09 00:39:30;;;;;;;33.70;21.25;;;13.00;56.60;;;;;;6131003;23;20025;-84
2022/12/09 00:41:56;;;;;;;41.88;23.65;;;12.80;56.80;;;;;;6130798;23;20052;-82
2022/12/09 00:44:21;;;;;;;45.65;25.45;;;12.80;57.00;;;;;;6157566;23;20121;-82
2022/12/09 00:46:47;;;;;;;41.42;23.35;;;12.60;57.10;;;;;;6156439;23;20466;-81
2022/12/09 00:49:13;;;;;;;36.22;22.35;;;12.00;57.70;;;;;;6157018;23;20006;-81
2022/12/09 00:51:39;;;;;;;33.97;20.90;;;11.70;58.70;;;;;;6130797;23;20060;-81
2022/12/09 00:54:04;;;;;;;31.52;19.80;;;11.20;59.40;;;;;;6130381;23;20012;-81
2022/12/09 00:56:30;;;;;;;30.35;19.75;;;10.70;60.30;;;;;;6130667;23;20446;-81
2022/12/09 00:58:57;;;;;;;34.17;22.45;;;10.60;61.20;;;;;;6131159;23;20002;-81
2022/12/09 01:01:24;;;;;;;37.03;23.50;;;10.90;60.90;;;;;;6156658;23;20403;-81
2022/12/09 01:03:50;;;;;;;34.72;21.70;;;11.40;59.80;;;;;;6130388;23;20025;-82
2022/12/09 01:06:18;;;;;;;37.28;22.92;;;11.80;59.30;;;;;;6130485;23;20017;-81
2022/12/09 01:08:44;;;;;;;36.35;21.70;;;12.10;58.70;;;;;;6130503;23;20020;-83
2022/12/09 01:11:25;;;;;;;34.08;20.42;;;12.40;57.90;;;;;;6129971;23;20085;-82
2022/12/09 01:13:51;;;;;;;32.90;21.55;;;12.50;57.30;;;;;;6130085;23;20127;-83
2022/12/09 01:16:24;;;;;;;33.20;21.17;;;12.60;57.50;;;;;;6130438;23;20016;-82
2022/12/09 01:18:52;;;;;;;35.00;22.45;;;12.70;57.10;;;;;;6156045;23;20033;-82
2022/12/09 01:21:18;;;;;;;33.05;20.75;;;12.90;56.80;;;;;;6130500;23;20001;-82
2022/12/09 01:23:44;;;;;;;35.45;20.77;;;12.90;56.80;;;;;;6130490;23;20089;-81
2022/12/09 01:26:10;;;;;;;33.45;21.13;;;12.90;56.90;;;;;;6156950;23;20084;-82
2022/12/09 01:28:37;;;;;;;34.90;21.23;;;12.90;56.40;;;;;;6130634;23;20034;-82
2022/12/09 01:31:05;;;;;;;33.88;21.25;;;12.80;56.80;;;;;;6156158;23;20010;-82
2022/12/09 01:33:31;;;;;;;34.67;21.33;;;12.50;57.50;;;;;;6130349;23;20001;-81
2022/12/09 01:35:57;;;;;;;31.60;20.42;;;12.50;57.70;;;;;;6130110;23;20009;-80
2022/12/09 01:38:23;;;;;;;33.67;21.40;;;12.30;57.60;;;;;;6129607;23;20466;-81
2022/12/09 01:40:49;;;;;;;34.55;22.40;;;12.30;58.00;;;;;;6130663;23;20405;-83
2022/12/09 01:43:22;;;;;;;36.17;22.13;;;12.40;57.70;;;;;;6130059;23;20005;-80
2022/12/09 01:45:48;;;;;;;34.17;22.25;;;12.60;57.40;;;;;;6155279;23;20001;-82
2022/12/09 01:48:20;;;;;;;35.10;22.00;;;12.70;57.20;;;;;;6130314;23;20010;-81
2022/12/09 01:50:47;;;;;;;33.13;20.55;;;12.70;57.60;;;;;;6156000;23;20077;-82
2022/12/09 01:53:15;;;;;;;35.47;21.60;;;12.80;56.80;;;;;;6156185;23;20032;-81
2022/12/09 01:55:41;;;;;;;36.10;22.98;;;12.90;57.00;;;;;;6155810;23;20008;-83
2022/12/09 01:58:08;;;;;;;34.83;22.90;;;13.00;56.50;;;;;;6129041;23;20013;-81
2022/12/09 02:00:34;;;;;;;35.60;22.02;;;13.00;56.60;;;;;;6130240;23;20033;-81
2022/12/09 02:03:01;;;;;;;37.13;22.60;;;13.00;56.60;;;;;;6155945;23;20327;-80
2022/12/09 02:05:29;;;;;;;33.72;22.00;;;12.80;56.60;;;;;;6129640;23;20037;-80
2022/12/09 02:07:55;;;;;;;34.65;22.40;;;12.70;57.30;;;;;;6155254;23;20036;-81
2022/12/09 02:10:21;;;;;;;33.55;22.17;;;12.80;57.30;;;;;;6129003;23;20005;-81
2022/12/09 02:13:22;;;;;;;34.47;21.45;;;12.70;57.40;;;;;;6155779;23;20465;-80
2022/12/09 02:16:01;;;;;;;35.85;22.58;;;12.80;57.10;;;;;;6155724;23;20064;-79
2022/12/09 02:19:14;;;;;;;35.53;21.52;;;12.90;57.20;;;;;;6129015;23;20005;-80
2022/12/09 02:21:54;;;;;;;36.03;22.25;;;13.10;56.50;;;;;;6142736;23;20326;-81
2022/12/09 02:24:30;;;;;;;31.83;20.30;;;13.20;56.40;;;;;;6155918;23;20012;-81
2022/12/09 02:27:16;;;;;;;36.20;22.55;;;13.20;56.90;;;;;;6155673;23;20014;-82
2022/12/09 02:30:05;;;;;;;33.20;21.10;;;13.20;56.70;;;;;;6155839;23;20004;-83
2022/12/09 02:32:56;;;;;;;34.38;21.58;;;12.90;57.00;;;;;;6156062;23;20001;-81
2022/12/09 02:35:44;;;;;;;33.83;20.20;;;12.80;56.90;;;;;;6129716;23;20001;-81
2022/12/09 02:38:20;;;;;;;35.22;22.20;;;12.80;57.00;;;;;;6128679;23;20006;-82
2022/12/09 02:41:01;;;;;;;33.28;20.95;;;12.80;57.50;;;;;;6129873;23;20013;-82
2022/12/09 02:43:30;;;;;;;35.08;21.98;;;12.80;56.80;;;;;;6129745;23;20009;-82
2022/12/09 02:45:58;;;;;;;33.43;21.57;;;12.70;57.20;;;;;;6129673;23;20005;-81
2022/12/09 02:48:37;;;;;;;34.60;21.58;;;12.80;57.20;;;;;;6129553;23;20242;-82
2022/12/09 02:51:06;;;;;;;35.45;22.52;;;13.00;56.60;;;;;;6155544;23;20005;-80
2022/12/09 02:53:33;;;;;;;36.55;22.27;;;12.90;57.00;;;;;;6155565;23;20367;-81
2022/12/09 02:56:00;;;;;;;34.92;21.92;;;12.90;56.60;;;;;;6129865;23;20002;-81
2022/12/09 02:58:25;;;;;;;35.15;21.60;;;12.90;56.50;;;;;;6129250;23;20166;-82
2022/12/09 03:00:55;;;;;;;33.90;21.33;;;12.90;56.70;;;;;;6155868;23;20063;-81
2022/12/09 03:03:21;;;;;;;36.03;21.88;;;12.90;56.50;;;;;;6129100;23;20033;-82
2022/12/09 03:05:58;;;;;;;32.97;20.75;;;12.50;57.00;;;;;;6155062;23;20319;-81
2022/12/09 03:08:46;;;;;;;33.88;20.77;;;12.00;58.20;;;;;;6129402;23;20406;-81
2022/12/09 03:11:15;;;;;;;29.55;20.17;;;11.80;58.80;;;;;;6157489;23;19997;-81
2022/12/09 03:14:06;;;;;;;32.53;20.58;;;11.50;59.40;;;;;;6157521;23;20324;-82
2022/12/09 03:16:48;;;;;;;31.92;19.55;;;11.00;60.30;;;;;;6118542;23;20013;-82
2022/12/09 03:19:44;;;;;;;32.90;21.48;;;10.60;61.70;;;;;;6131224;23;20013;-82
2022/12/09 03:22:14;;;;;;;33.72;21.50;;;10.60;61.70;;;;;;6131493;23;20002;-81
2022/12/09 03:24:58;;;;;;;31.17;19.75;;;10.70;61.70;;;;;;6157596;23;19997;-81
2022/12/09 03:27:40;;;;;;;32.83;20.60;;;11.00;60.50;;;;;;6157488;23;20046;-82
2022/12/09 03:30:09;;;;;;;33.42;21.55;;;10.10;62.20;;;;;;6157207;23;20060;-80
2022/12/09 03:32:37;;;;;;;35.90;20.95;;;10.10;63.30;;;;;;6131083;23;20033;-79
2022/12/09 03:35:30;;;;;;;33.78;21.92;;;10.30;62.80;;;;;;6131529;23;20006;-81
2022/12/09 03:38:01;;;;;;;34.35;21.48;;;10.70;62.70;;;;;;6156856;23;20005;-81
2022/12/09 03:40:29;;;;;;;34.22;21.48;;;11.30;60.90;;;;;;6131064;23;20013;-82
2022/12/09 03:42:59;;;;;;;37.00;22.63;;;11.80;59.70;;;;;;6157600;23;20052;-81
2022/12/09 03:45:26;;;;;;;32.83;20.95;;;11.60;59.50;;;;;;6131394;23;20450;-82
2022/12/09 03:47:52;;;;;;;36.25;21.80;;;10.90;61.40;;;;;;6157569;23;20033;-82
2022/12/09 03:50:20;;;;;;;40.35;24.33;;;11.00;61.40;;;;;;6156321;23;20591;-82
2022/12/09 03:53:05;;;;;;;35.88;22.45;;;11.40;60.60;;;;;;6130899;23;20017;-81
2022/12/09 03:55:54;;;;;;;35.70;22.38;;;11.90;59.50;;;;;;6156582;23;20422;-81
2022/12/09 03:58:20;;;;;;;35.85;22.63;;;12.20;58.80;;;;;;6156981;23;20382;-82
2022/12/09 04:00:47;;;;;;;38.35;23.08;;;12.30;58.30;;;;;;6157997;23;20030;-81
2022/12/09 04:03:15;;;;;;;41.60;24.20;;;12.20;58.50;;;;;;6157480;23;20339;-80
2022/12/09 04:05:41;;;;;;;34.63;22.05;;;12.10;59.00;;;;;;6131394;23;20433;-83
2022/12/09 04:08:07;;;;;;;38.88;22.60;;;12.30;58.20;;;;;;6130664;23;20470;-81
2022/12/09 04:10:33;;;;;;;34.63;21.65;;;12.60;57.90;;;;;;6156620;23;20355;-81
2022/12/09 04:12:59;;;;;;;33.83;21.85;;;12.60;57.60;;;;;;6156935;23;20077;-81
2022/12/09 04:15:24;;;;;;;36.10;24.08;;;12.30;58.10;;;;;;6130782;23;20005;-82
2022/12/09 04:17:50;;;;;;;39.50;24.20;;;12.00;58.70;;;;;;6131107;23;20040;-80
2022/12/09 04:20:16;;;;;;;36.38;22.80;;;11.60;59.50;;;;;;6131162;23;20091;-81
2022/12/09 04:22:41;;;;;;;39.08;24.05;;;11.70;60.00;;;;;;6130872;23;20012;-81
2022/12/09 04:25:07;;;;;;;35.67;23.13;;;11.70;59.90;;;;;;6157283;23;20056;-82
2022/12/09 04:27:33;;;;;;;39.42;24.52;;;11.80;59.30;;;;;;6156231;23;20093;-82
2022/12/09 04:29:59;;;;;;;38.78;24.52;;;11.90;59.30;;;;;;6130882;23;20048;-82
2022/12/09 04:32:25;;;;;;;38.83;24.98;;;11.90;59.50;;;;;;6130824;23;20005;-80
2022/12/09 04:34:50;;;;;;;36.58;23.05;;;12.00;59.20;;;;;;6131470;23;20012;-83
2022/12/09 04:37:16;;;;;;;35.58;23.83;;;12.20;58.80;;;;;;6131184;23;20013;-81
2022/12/09 04:39:42;;;;;;;39.22;24.92;;;12.30;58.60;;;;;;6131026;23;20045;-80
2022/12/09 04:42:08;;;;;;;39.70;24.60;;;12.50;57.80;;;;;;6130926;23;20006;-81
2022/12/09 04:44:33;;;;;;;40.67;25.40;;;12.40;58.60;;;;;;6131484;23;20033;-81
2022/12/09 04:46:59;;;;;;;40.30;26.27;;;12.30;58.60;;;;;;6130793;23;20432;-82
2022/12/09 04:49:25;;;;;;;40.97;25.23;;;12.30;58.50;;;;;;6130955;23;20012;-80
2022/12/09 04:51:50;;;;;;;39.78;26.02;;;12.40;58.50;;;;;;6156139;23;20055;-82
2022/12/09 04:54:16;;;;;;;45.78;27.25;;;12.50;57.80;;;;;;6130812;23;20088;-80
2022/12/09 04:56:42;;;;;;;39.15;24.65;;;12.40;58.30;;;;;;6156737;23;20036;-82
2022/12/09 04:59:08;;;;;;;38.67;24.15;;;12.60;58.10;;;;;;6157715;23;20001;-81
2022/12/09 05:01:34;;;;;;;40.50;24.77;;;12.60;57.70;;;;;;6129933;23;20005;-81
2022/12/09 05:03:59;;;;;;;39.53;24.65;;;12.70;58.10;;;;;;6130480;23;20009;-80
2022/12/09 05:06:26;;;;;;;40.88;25.73;;;12.70;57.80;;;;;;6156436;23;20006;-82
2022/12/09 05:08:51;;;;;;;43.08;26.40;;;12.80;57.60;;;;;;6130432;23;20009;-81
2022/12/09 05:11:19;;;;;;;41.20;25.40;;;12.80;57.60;;;;;;6155612;23;20480;-81
2022/12/09 05:13:44;;;;;;;42.17;25.65;;;12.80;57.60;;;;;;6129735;23;20339;-82
2022/12/09 05:16:13;;;;;;;42.83;27.30;;;12.50;58.00;;;;;;6129759;23;20002;-80
2022/12/09 05:18:39;;;;;;;43.28;26.05;;;12.50;58.40;;;;;;6156778;23;20078;-79
2022/12/09 05:21:07;;;;;;;40.92;26.40;;;12.50;58.40;;;;;;6130342;23;20036;-80
2022/12/09 05:23:33;;;;;;;40.88;24.83;;;12.60;58.00;;;;;;6156245;23;20005;-82
2022/12/09 05:26:03;;;;;;;42.65;26.15;;;12.60;58.10;;;;;;6130507;23;20009;-81
2022/12/09 05:28:30;;;;;;;40.55;26.60;;;12.70;57.80;;;;;;6130317;23;20064;-81
2022/12/09 05:31:00;;;;;;;43.10;26.63;;;12.50;58.30;;;;;;6130097;23;20335;-82
2022/12/09 05:33:27;;;;;;;44.08;26.40;;;12.30;58.50;;;;;;6129451;23;20389;-84
2022/12/09 05:35:53;;;;;;;38.88;25.00;;;12.30;58.60;;;;;;6156060;23;20036;-81
2022/12/09 05:38:18;;;;;;;40.45;25.55;;;12.30;58.70;;;;;;6129778;23;20013;-81
2022/12/09 05:44:06;;;;;;;50.22;29.42;;;11.80;59.80;;;;;;6094254;23;20006;-81
2022/12/09 05:46:32;;;;;;;45.15;28.23;;;12.10;59.60;;;;;;6094330;23;20018;-81
2022/12/09 05:49:00;;;;;;;44.35;27.60;;;12.40;59.00;;;;;;6094644;23;20361;-81
2022/12/09 05:51:28;;;;;;;42.47;27.10;;;12.50;58.70;;;;;;6095060;23;20428;-81
2022/12/09 05:53:56;;;;;;;51.85;29.38;;;12.50;58.20;;;;;;6071202;23;20002;-80
2022/12/09 05:56:23;;;;;;;45.70;27.63;;;12.40;58.40;;;;;;6095106;23;20010;-80
2022/12/09 05:58:49;;;;;;;48.53;28.65;;;12.30;59.00;;;;;;6070589;23;20042;-79
2022/12/09 06:01:18;;;;;;;53.15;30.33;;;12.40;58.90;;;;;;6094510;23;20006;-81
2022/12/09 06:03:48;;;;;;;51.20;29.10;;;12.40;58.90;;;;;;6070816;23;20033;-81
2022/12/09 06:06:16;;;;;;;52.80;30.60;;;12.40;59.00;;;;;;6094917;23;20003;-80
2022/12/09 06:08:43;;;;;;;49.00;29.80;;;12.40;59.20;;;;;;6069913;23;20085;-81
2022/12/09 06:11:11;;;;;;;51.75;30.13;;;12.50;58.90;;;;;;6094526;23;20122;-81
2022/12/09 06:13:37;;;;;;;56.53;30.98;;;12.50;58.40;;;;;;6093223;23;20017;-79
2022/12/09 06:19:14;;;;;;;67.15;35.92;;;12.20;59.40;;;;;;6082899;23;20007;-80
2022/12/09 06:21:43;;;;;;;67.32;37.15;;;11.90;59.90;;;;;;6136695;23;20001;-80
2022/12/09 06:24:09;;;;;;;59.28;31.98;;;11.80;60.20;;;;;;6129493;23;20010;-81
2022/12/09 06:27:00;;;;;;;61.05;32.00;;;11.80;60.40;;;;;;6128202;23;20394;-82
2022/12/09 06:29:28;;;;;;;62.47;31.60;;;11.90;60.50;;;;;;6128585;23;20009;-82
2022/12/09 06:31:57;;;;;;;64.63;33.30;;;12.00;60.10;;;;;;6128884;23;20085;-83
2022/12/09 06:34:23;;;;;;;60.38;31.33;;;11.70;61.20;;;;;;6128021;23;20009;-83
2022/12/09 06:36:49;;;;;;;59.85;31.40;;;11.60;61.40;;;;;;6128008;23;20454;-82
2022/12/09 06:39:14;;;;;;;62.25;33.10;;;11.50;62.20;;;;;;6129204;23;20055;-82
2022/12/09 06:41:40;;;;;;;60.08;32.58;;;11.80;61.20;;;;;;6129021;23;20080;-81
2022/12/09 06:44:07;;;;;;;73.57;33.55;;;11.90;61.00;;;;;;6128861;23;20005;-81
2022/12/09 06:46:32;;;;;;;69.95;34.08;;;11.70;61.70;;;;;;6156209;23;20077;-82
2022/12/09 06:48:58;;;;;;;65.53;33.42;;;11.70;61.20;;;;;;6129464;23;20013;-81
2022/12/09 06:51:25;;;;;;;64.55;33.58;;;11.30;62.00;;;;;;6129482;23;20021;-82
2022/12/09 06:53:50;;;;;;;68.10;33.38;;;11.20;62.90;;;;;;6127899;23;20056;-81
2022/12/09 06:56:16;;;;;;;63.92;32.90;;;10.90;63.70;;;;;;6128451;23;20009;-82
2022/12/09 06:58:43;;;;;;;63.42;33.10;;;10.70;63.80;;;;;;6154347;23;20045;-80
2022/12/09 07:01:12;;;;;;;58.78;32.83;;;10.70;64.70;;;;;;6129056;23;20002;-83
2022/12/09 07:03:48;;;;;;;64.82;32.05;;;10.90;64.00;;;;;;6128741;23;20758;-81
2022/12/09 07:06:30;;;;;;;65.95;34.00;;;10.90;63.80;;;;;;6129214;23;20045;-80
2022/12/09 07:08:58;;;;;;;68.22;35.10;;;10.90;64.00;;;;;;6129453;23;20062;-81
2022/12/09 07:11:24;;;;;;;82.28;40.28;;;11.00;64.10;;;;;;6155430;23;19997;-80
2022/12/09 07:13:50;;;;;;;98.50;48.38;;;11.10;63.30;;;;;;6155379;23;20028;-82
2022/12/09 07:16:16;;;;;;;79.43;39.30;;;11.40;64.00;;;;;;6155718;23;20002;-82
2022/12/09 07:18:42;;;;;;;119.47;62.10;;;11.50;62.40;;;;;;6155441;23;20052;-82
2022/12/09 07:21:09;;;;;;;92.38;47.33;;;11.60;62.60;;;;;;6129528;23;20008;-83
2022/12/09 07:23:36;;;;;;;83.38;41.10;;;11.90;62.10;;;;;;6154261;23;20292;-81
2022/12/09 07:26:04;;;;;;;76.88;37.88;;;11.70;62.60;;;;;;6155600;23;20312;-82
2022/12/09 07:28:30;;;;;;;82.15;37.83;;;11.60;63.10;;;;;;6128707;23;20021;-82
2022/12/09 07:30:56;;;;;;;71.57;36.22;;;11.50;62.70;;;;;;6155428;23;19997;-81
2022/12/09 07:33:22;;;;;;;89.88;47.78;;;11.70;62.20;;;;;;6128402;23;20006;-82
2022/12/09 07:35:47;;;;;;;80.65;42.78;;;11.80;62.00;;;;;;6129675;23;20010;-81
2022/12/09 07:38:13;;;;;;;75.82;41.58;;;11.80;62.40;;;;;;6129161;23;20336;-80
2022/12/09 07:40:39;;;;;;;80.07;37.83;;;11.70;62.70;;;;;;6155038;23;20093;-81
2022/12/09 07:43:20;;;;;;;77.18;38.65;;;11.70;62.90;;;;;;6128410;23;20004;-83
2022/12/09 07:45:48;;;;;;;82.05;37.10;;;11.70;62.40;;;;;;6154920;23;20088;-81
2022/12/09 07:48:23;;;;;;;76.60;38.55;;;11.60;62.70;;;;;;6128616;23;20462;-80
2022/12/09 07:54:28;;;;;;;81.80;35.72;;;11.20;63.80;;;;;;6129366;23;20016;-82
2022/12/09 07:56:53;;;;;;;68.10;34.80;;;10.80;64.50;;;;;;6129838;23;20006;-81
2022/12/09 07:59:19;;;;;;;72.78;35.50;;;10.60;66.00;;;;;;6156264;23;20056;-81
2022/12/09 08:01:45;;;;;;;79.20;37.72;;;10.60;65.20;;;;;;6129862;23;20002;-80
2022/12/09 08:04:11;;;;;;;65.93;33.90;;;10.50;66.00;;;;;;6156192;23;20013;-79
2022/12/09 08:07:06;;;;;;;;;;;;;;;;;;;;;
2022/12/09 08:09:31;;;;;;;76.10;35.53;;;10.70;65.90;;;;;;6156677;23;20100;-82
2022/12/09 08:11:57;;;;;;;69.32;34.65;;;10.50;65.90;;;;;;6156413;23;20388;-81
2022/12/09 08:14:23;;;;;;;72.15;39.85;;;10.70;65.90;;;;;;6155402;23;20021;-80
2022/12/09 08:16:48;;;;;;;69.18;34.85;;;10.90;64.30;;;;;;6156288;23;20005;-81
2022/12/09 08:19:17;;;;;;;68.88;36.00;;;11.00;64.80;;;;;;6131002;23;20020;-81
2022/12/09 08:21:42;;;;;;;74.97;36.85;;;11.20;64.10;;;;;;6122029;23;20040;-84
2022/12/09 08:24:10;;;;;;;72.00;36.10;;;11.50;63.00;;;;;;6130933;23;20052;-82
2022/12/09 08:26:37;;;;;;;66.20;33.95;;;11.50;63.30;;;;;;6156571;23;20009;-77
2022/12/09 08:29:09;;;;;;;65.80;34.17;;;11.30;63.30;;;;;;6129993;23;20001;-79
2022/12/09 08:31:35;;;;;;;64.20;34.25;;;11.10;63.50;;;;;;6130523;23;20006;-80
2022/12/09 08:34:04;;;;;;;65.07;35.75;;;11.10;64.20;;;;;;6130240;23;20060;-81
2022/12/09 08:36:30;;;;;;;61.72;32.60;;;11.10;64.00;;;;;;6130732;23;20049;-80
2022/12/09 08:39:00;;;;;;;65.55;33.90;;;11.00;64.30;;;;;;6130240;23;20010;-81
2022/12/09 08:41:34;;;;;;;60.83;32.85;;;11.20;64.20;;;;;;6130874;23;20013;-79
2022/12/09 08:44:04;;;;;;;67.50;37.45;;;11.30;63.50;;;;;;6130256;23;20006;-81
2022/12/09 08:46:31;;;;;;;65.88;34.53;;;11.60;63.50;;;;;;6130165;23;20005;-79
2022/12/09 08:49:00;;;;;;;64.25;34.88;;;11.60;63.30;;;;;;6156765;23;20010;-82
2022/12/09 08:51:27;;;;;;;67.70;38.60;;;11.60;63.00;;;;;;6131202;23;20001;-80
2022/12/09 08:53:53;;;;;;;69.82;37.75;;;11.70;62.80;;;;;;6128617;23;20033;-81
2022/12/09 08:56:19;;;;;;;76.82;41.85;;;11.70;62.40;;;;;;6128390;23;20427;-82
2022/12/09 08:58:47;;;;;;;82.07;42.50;;;11.50;62.80;;;;;;6129141;23;20009;-81
2022/12/09 09:01:21;;;;;;;67.75;37.25;;;11.30;64.10;;;;;;6129890;23;20140;-82
2022/12/09 09:03:48;;;;;;;76.03;41.47;;;11.50;64.20;;;;;;6155820;23;20323;-83
2022/12/09 09:06:15;;;;;;;63.28;34.25;;;11.70;62.90;;;;;;6156014;23;20029;-81
2022/12/09 09:08:41;;;;;;;66.32;34.97;;;11.80;62.80;;;;;;6130178;23;20017;-81
2022/12/09 09:11:18;;;;;;;68.57;35.10;;;11.90;63.10;;;;;;6156817;23;20009;-81
2022/12/09 09:13:46;;;;;;;68.35;35.13;;;11.80;62.60;;;;;;6130411;23;20018;-80
2022/12/09 09:16:18;;;;;;;69.10;38.85;;;11.80;62.80;;;;;;6155769;23;20344;-82
2022/12/09 09:18:44;;;;;;;66.85;35.97;;;11.60;63.10;;;;;;6131299;23;20093;-82
2022/12/09 09:21:12;;;;;;;57.15;32.47;;;11.60;62.90;;;;;;6130456;23;20043;-81
2022/12/09 09:23:38;;;;;;;71.75;37.95;;;11.50;64.20;;;;;;6130507;23;20009;-82
2022/12/09 09:26:04;;;;;;;77.18;37.95;;;11.50;64.40;;;;;;6130617;23;20006;-82
2022/12/09 09:28:29;;;;;;;67.68;34.95;;;11.50;64.10;;;;;;6130499;23;20014;-80
2022/12/09 09:31:04;;;;;;;64.97;35.38;;;11.60;64.00;;;;;;6130167;23;20452;-81
2022/12/09 09:33:30;;;;;;;65.32;34.95;;;11.50;64.60;;;;;;6155756;23;20092;-82
2022/12/09 09:35:57;;;;;;;76.45;39.45;;;11.60;63.80;;;;;;6130757;23;20032;-81
2022/12/09 09:38:23;;;;;;;74.45;36.25;;;11.50;64.70;;;;;;6130220;23;20375;-81
2022/12/09 09:40:50;;;;;;;85.32;42.78;;;11.60;65.10;;;;;;6130000;23;20084;-81
2022/12/09 09:43:19;;;;;;;77.10;39.88;;;11.80;63.90;;;;;;6156289;23;20076;-81
2022/12/09 09:45:45;;;;;;;75.57;38.00;;;11.80;64.30;;;;;;6130353;23;20376;-81
2022/12/09 09:48:17;;;;;;;68.53;36.53;;;11.90;63.60;;;;;;6156285;23;20029;-81
2022/12/09 09:50:49;;;;;;;79.95;39.25;;;12.00;63.60;;;;;;6129787;23;20010;-81
2022/12/09 09:53:30;;;;;;;73.70;36.50;;;12.20;63.30;;;;;;6130269;23;20014;-82
2022/12/09 09:56:01;;;;;;;79.35;38.83;;;12.30;63.30;;;;;;6130197;23;20006;-82
2022/12/09 09:58:27;;;;;;;69.95;36.05;;;12.30;63.00;;;;;;6130200;23;20016;-80
2022/12/09 10:01:06;;;;;;;68.43;35.17;;;12.30;63.70;;;;;;6130383;23;20080;-81
2022/12/09 10:03:50;;;;;;;69.13;35.67;;;12.40;62.70;;;;;;6156320;23;20008;-81
2022/12/09 10:06:28;;;;;;;70.63;37.13;;;12.20;63.50;;;;;;6130519;23;20244;-81
2022/12/09 10:09:12;;;;;;;75.47;38.80;;;12.30;63.20;;;;;;6130294;23;20003;-81
2022/12/09 10:11:51;;;;;;;60.25;34.05;;;12.40;62.80;;;;;;6156622;23;20010;-81
2022/12/09 10:14:35;;;;;;;62.97;33.38;;;12.30;63.40;;;;;;6129913;23;20005;-81
2022/12/09 10:17:20;;;;;;;67.45;34.90;;;12.40;63.30;;;;;;6156388;23;20008;-81
2022/12/09 10:19:49;;;;;;;67.72;34.63;;;12.60;62.40;;;;;;6129981;23;19998;-81
2022/12/09 10:22:20;;;;;;;59.63;30.67;;;12.80;62.00;;;;;;6130100;23;20015;-81
2022/12/09 10:24:50;;;;;;;68.72;32.63;;;12.90;61.80;;;;;;6156331;23;20029;-81
2022/12/09 10:27:41;;;;;;;70.45;33.92;;;12.90;61.90;;;;;;6130438;23;20045;-81
2022/12/09 10:30:14;;;;;;;66.13;35.25;;;12.80;62.40;;;;;;6130150;23;20005;-81
2022/12/09 10:32:40;;;;;;;65.97;34.28;;;12.70;62.30;;;;;;6156184;23;20004;-81
2022/12/09 10:35:19;;;;;;;58.60;31.38;;;12.60;62.50;;;;;;6129996;23;20009;-84
2022/12/09 10:37:45;;;;;;;56.97;29.90;;;12.60;62.70;;;;;;6156052;23;20430;-81
2022/12/09 10:40:11;;;;;;;60.85;32.00;;;12.30;63.30;;;;;;6129944;23;20005;-81
2022/12/09 10:45:33;;;;;;;64.28;32.78;;;12.60;62.40;;;;;;6156086;23;20493;-80
2022/12/09 10:47:59;;;;;;;64.03;34.42;;;12.40;62.50;;;;;;6155712;23;20088;-82
2022/12/09 10:50:30;;;;;;;56.65;29.95;;;12.40;63.00;;;;;;6130381;23;20005;-82
2022/12/09 10:52:57;;;;;;;65.50;32.75;;;12.20;63.50;;;;;;6130082;23;20334;-81
2022/12/09 10:55:34;;;;;;;75.15;34.00;;;12.30;64.00;;;;;;6129935;23;20434;-81
2022/12/09 10:58:14;;;;;;;61.22;33.22;;;12.20;63.20;;;;;;6155587;23;20041;-81
2022/12/09 11:00:40;;;;;;;62.33;32.17;;;12.30;63.60;;;;;;6129972;23;20002;-81
2022/12/09 11:03:27;;;;;;;65.82;32.13;;;12.20;63.90;;;;;;6129511;23;20017;-81
2022/12/09 11:05:59;;;;;;;59.55;30.17;;;12.20;63.70;;;;;;6131163;23;20296;-81
2022/12/09 11:08:25;;;;;;;61.40;31.63;;;12.10;64.50;;;;;;6129939;23;20018;-80
2022/12/09 11:10:51;;;;;;;69.97;34.20;;;11.90;64.70;;;;;;6155742;23;20431;-80
2022/12/09 11:13:19;;;;;;;60.58;31.83;;;11.70;65.10;;;;;;6129452;23;20006;-80
2022/12/09 11:15:52;;;;;;;76.07;35.47;;;11.70;65.00;;;;;;6129214;23;20092;-80
2022/12/09 11:18:39;;;;;;;80.80;35.85;;;11.70;65.50;;;;;;6129774;23;20056;-80
2022/12/09 11:21:07;;;;;;;88.15;39.63;;;11.80;65.50;;;;;;6146521;23;20443;-80
2022/12/09 11:23:34;;;;;;;66.00;32.17;;;11.90;65.20;;;;;;6129650;23;20009;-80
2022/12/09 11:26:23;;;;;;;66.22;31.90;;;12.00;64.80;;;;;;6129959;23;20010;-81
2022/12/09 11:29:12;;;;;;;60.75;31.92;;;12.00;65.20;;;;;;6129545;23;20085;-80
2022/12/09 11:31:39;;;;;;;54.03;27.90;;;12.20;64.20;;;;;;6130321;23;20006;-81
2022/12/09 11:34:22;;;;;;;53.85;29.48;;;12.50;63.80;;;;;;6157863;23;20005;-80
2022/12/09 11:36:52;;;;;;;51.97;28.38;;;12.50;63.60;;;;;;6157787;23;20084;-81
2022/12/09 11:39:22;;;;;;;;;;;12.50;63.70;;;;;;6132222;23;20423;-81
2022/12/09 11:42:16;;;;;;;;;;;12.40;63.40;;;;;;6131996;23;19900;-81
2022/12/09 11:44:58;;;;;;;46.03;25.15;;;12.50;63.90;;;;;;6157587;23;20273;-80
2022/12/09 11:47:38;;;;;;;48.17;25.70;;;12.50;63.00;;;;;;6131244;23;20388;-80
2022/12/09 11:50:29;;;;;;;52.55;26.55;;;12.40;63.70;;;;;;6131147;23;20041;-81
2022/12/09 11:53:12;;;;;;;54.85;28.45;;;12.40;63.80;;;;;;6157659;23;20023;-80
2022/12/09 11:55:45;;;;;;;47.70;25.38;;;12.40;63.70;;;;;;6131582;23;20009;-80
2022/12/09 11:58:35;;;;;;;46.78;27.13;;;12.50;63.50;;;;;;6157551;23;20064;-81
2022/12/09 12:01:20;;;;;;;;;;;12.60;63.10;;;;;;6131794;23;20009;-81
2022/12/09 12:03:56;;;;;;;46.58;25.50;;;12.60;63.60;;;;;;6131466;23;20306;-82
2022/12/09 12:06:25;;;;;;;44.92;25.30;;;12.70;63.60;;;;;;6131644;23;20010;-81
2022/12/09 12:08:58;;;;;;;45.42;25.33;;;12.80;63.20;;;;;;6157014;23;20009;-82
2022/12/09 12:11:33;;;;;;;41.42;24.45;;;12.90;63.00;;;;;;6157350;23;20002;-82
2022/12/09 12:14:08;;;;;;;44.72;24.83;;;12.90;63.00;;;;;;6131341;23;20427;-81
2022/12/09 12:16:44;;;;;;;45.63;25.10;;;12.90;62.80;;;;;;6157619;23;20018;-81
2022/12/09 12:19:31;;;;;;;42.58;24.88;;;12.80;62.70;;;;;;6131287;23;20048;-81
2022/12/09 12:22:24;;;;;;;48.08;25.80;;;12.80;63.00;;;;;;6131358;23;20312;-82
2022/12/09 12:25:08;;;;;;;54.05;28.42;;;12.80;62.80;;;;;;6157460;23;20040;-81
2022/12/09 12:28:07;;;;;;;43.63;24.35;;;12.70;63.20;;;;;;6157286;23;20505;-81
2022/12/09 12:31:02;;;;;;;55.15;27.58;;;12.80;63.00;;;;;;6157070;23;20005;-82
2022/12/09 12:33:35;;;;;;;63.35;32.33;;;12.90;62.90;;;;;;6131713;23;20085;-81
2022/12/09 12:36:32;;;;;;;56.22;30.15;;;12.90;63.30;;;;;;6157148;23;20416;-81
2022/12/09 12:39:03;;;;;;;68.97;34.50;;;13.00;62.60;;;;;;6130933;23;20016;-81
2022/12/09 12:41:47;;;;;;;59.97;31.08;;;13.10;62.40;;;;;;6157063;23;20044;-82
2022/12/09 12:47:45;;;;;;;58.03;32.75;;;12.80;62.70;;;;;;6156888;23;20020;-81
2022/12/09 12:50:24;;;;;;;62.20;33.35;;;12.60;63.80;;;;;;6130801;23;20435;-81
2022/12/09 12:53:04;;;;;;;65.88;35.50;;;12.50;64.10;;;;;;6131031;23;20001;-81
2022/12/09 12:56:23;;;;;;;61.10;33.67;;;12.50;64.30;;;;;;6130946;23;20014;-82
2022/12/09 12:59:08;;;;;;;65.15;36.47;;;12.60;63.80;;;;;;6009886;23;20035;-81
2022/12/09 13:01:59;;;;;;;56.35;32.70;;;12.50;64.40;;;;;;6010000;23;20014;-81
2022/12/09 13:04:36;;;;;;;59.72;30.60;;;12.70;63.60;;;;;;5986342;23;20039;-81